Ship Status Report: callsign BATEU06

sailwx.info

Track history (hours):
 
Tides and Currents Weather Stations Pressure Air Temp Water Temp Dewpoint Dewpoint Depression Visibility Wind Speed Wind Dir Waves Ship Positions

Callsign BATEU06 (name unknown)

Last reported at 2015-Aug-30 21:00 UTC. Time now 2015-Aug-30 22:35 UTC.
Position N 46°48' W 071°12'.

Wind from 250 at 18 knots

Barometer 1011.8 mb
Water temperature 23.4 ° C

Date/timePositionNaut miles runAvg speedWind from/ knotsBaromVisibWave heightAir tempDewpointWater temp
2015-Aug-30 21:00N 46°48' W 071°12'2020.3 250 / 181011.8 23.4
2015-Aug-30 20:00N 47°00' W 070°48'1514.5 210 / 211010.9 23.7
2015-Aug-30 19:00N 47°12' W 070°36'2424.3 200 / 231010.2 20.2
2015-Aug-30 18:00N 47°30' W 070°12'1414.5 220 / 151011.5 13.2
2015-Aug-30 17:00N 47°42' W 070°00'2221.7 220 / 191012.0 10.0
2015-Aug-30 16:00N 48°00' W 069°42'1414.4 210 / 231011.2 9.9
2015-Aug-30 15:00N 48°12' W 069°30'1010.0 210 / 151013.4 6.7
2015-Aug-30 14:00N 48°18' W 069°18'1414.4 220 / 181012.3 9.7
2015-Aug-30 13:00N 48°30' W 069°06'1010.0 220 / 221011.2 8.7
2015-Aug-30 12:00N 48°36' W 068°54'1313.3 230 / 261009.9 10.2
2015-Aug-30 11:00N 48°42' W 068°36'10 9.9 230 / 221010.0 10.2
2015-Aug-30 10:00N 48°48' W 068°24'10613.2 230 / 141010.3 10.4
2015-Aug-30 02:00N 49°36' W 066°00'2613.1 250 / 131012.1 14.4
2015-Aug-30 00:00N 49°48' W 065°24'6813.6 260 / 81012.6 14.7
2015-Aug-29 19:00N 50°06' W 063°42'1716.5 280 / 81012.8 14.7
2015-Aug-29 18:00N 50°00' W 063°18'1211.6 280 / 121012.6 17.4
2015-Aug-29 17:00N 50°00' W 063°00'1515.4 280 / 141012.8 17.5
2015-Aug-29 16:00N 50°00' W 062°36'1716.6 280 / 171012.8 18.0
2015-Aug-29 15:00N 49°54' W 062°12'1515.5 270 / 171012.3 17.9
2015-Aug-29 14:00N 49°54' W 061°48'1313.0 280 / 151012.1 17.9
2015-Aug-29 13:00N 50°00' W 061°30'3115.4 290 / 201012.0 18.2
2015-Aug-29 11:00N 50°00' W 060°42'5016.8 300 / 201009.9 17.7
2015-Aug-29 08:00N 50°06' W 059°24'1919.5 250 / 191007.0 16.4
2015-Aug-29 07:00N 50°18' W 059°00'3919.4 250 / 181007.2 17.4
2015-Aug-29 05:00N 50°42' W 058°12'1716.5 250 / 141006.9 17.4
2015-Aug-29 04:00N 50°54' W 057°54'1919.3 260 / 121007.2 16.7
2015-Aug-29 03:00N 51°06' W 057°30'1919.2 270 / 101007.2 16.7
2015-Aug-29 02:00N 51°18' W 057°06'1919.2 260 / 171006.7 17.4
2015-Aug-29 01:00N 51°30' W 056°42'2222.2 250 / 171005.0 17.7
2015-Aug-29 00:00N 51°42' W 056°12'3517.7 250 / 131004.3 16.0
2015-Aug-28 22:00N 51°54' W 055°18'1919.4 240 / 71004.8 8.9
2015-Aug-28 21:00N 52°00' W 054°48'1919.0 180 / 61005.1 10.7
2015-Aug-28 20:00N 52°12' W 054°24'1919.0 100 / 121006.1 10.2
2015-Aug-28 19:00N 52°24' W 054°00'1615.8 120 / 121006.9 10.5
2015-Aug-28 18:00N 52°30' W 053°36'2221.8 120 / 121007.6 10.7
2015-Aug-28 17:00N 52°42' W 053°06'1918.8 130 / 141008.0 10.4
2015-Aug-28 16:00N 52°54' W 052°42'2524.8 130 / 131009.3 8.4
2015-Aug-28 15:00N 53°06' W 052°06'1615.6 130 / 111010.6 8.4
2015-Aug-28 14:00N 53°12' W 051°42'1918.7 160 / 121011.0 9.9
2015-Aug-28 13:00N 53°24' W 051°18'1918.8 180 / 141011.4 10.9
2015-Aug-28 12:00N 53°30' W 050°48'1918.6 180 / 151011.8 10.2
2015-Aug-28 11:00N 53°42' W 050°24'2121.4 150 / 111012.1 11.5
2015-Aug-28 10:00N 53°54' W 049°54'1918.6 140 / 111012.5 11.4
2015-Aug-28 09:00N 54°00' W 049°24'1818.5 140 / 101013.2 11.4
2015-Aug-28 08:00N 54°12' W 049°00'1918.5 190 / 141013.5 11.2
2015-Aug-28 07:00N 54°18' W 048°30'1818.5 190 / 141013.7 11.2
2015-Aug-28 06:00N 54°24' W 048°00'1818.4 170 / 111014.2 11.0
2015-Aug-28 05:00N 54°36' W 047°36'1515.1 170 / 111014.8 11.2
2015-Aug-28 04:00N 54°42' W 047°12'1818.3 170 / 121015.1 10.7
2015-Aug-28 03:00N 54°48' W 046°42'2121.0 150 / 101015.8 10.4
2015-Aug-28 02:00N 55°00' W 046°12'1818.2 140 / 91016.5 10.5
2015-Aug-28 01:00N 55°06' W 045°42'1818.2 220 / 51016.8 10.4
2015-Aug-28 00:00N 55°12' W 045°12'1818.2 220 / 41016.9 10.7
2015-Aug-27 23:00N 55°24' W 044°48'1818.0 250 / 41016.3 10.7
2015-Aug-27 22:00N 55°30' W 044°18'2121.2 300 / 71016.6 9.9
2015-Aug-27 21:00N 55°36' W 043°42'1818.0 320 / 81016.1 10.0
2015-Aug-27 20:00N 55°42' W 043°12'2120.7 310 / 101015.6 9.4
2015-Aug-27 19:00N 55°54' W 042°42'1817.8 320 / 121015.0 9.9
2015-Aug-27 18:00N 56°00' W 042°12'1817.8 310 / 151014.6 9.9
2015-Aug-27 17:00N 56°06' W 041°42'2120.9 310 / 161013.9 9.7
2015-Aug-27 16:00N 56°12' W 041°06'2120.5 310 / 181013.4 9.4
2015-Aug-27 15:00N 56°24' W 040°36'1817.6 310 / 201012.7 9.2
2015-Aug-27 14:00N 56°30' W 040°06'2120.7 300 / 231012.0 9.4
2015-Aug-27 13:00N 56°36' W 039°30'3517.5 300 / 241011.0 9.2
2015-Aug-27 11:00N 56°48' W 038°30'1717.5 310 / 271009.6 9.4
2015-Aug-27 10:00N 56°54' W 038°00'2120.5 310 / 281008.5 9.4
2015-Aug-27 09:00N 57°00' W 037°24'2020.5 310 / 311007.1 9.4
2015-Aug-27 08:00N 57°06' W 036°48'1717.3 310 / 311006.4 9.4
2015-Aug-27 07:00N 57°12' W 036°18'2020.4 320 / 281005.1 9.7
2015-Aug-27 06:00N 57°18' W 035°42'2020.3 320 / 311003.9 10.2
2015-Aug-27 05:00N 57°24' W 035°06'1919.4 320 / 301003.3 9.9
2015-Aug-27 04:00N 57°24' W 034°30'1717.2 310 / 291002.4 9.7
2015-Aug-27 03:00N 57°30' W 034°00'2020.2 320 / 271002.4 0.3 10.2
2015-Aug-27 02:00N 57°36' W 033°24'2020.2 320 / 271001.6 10.0
2015-Aug-27 01:00N 57°42' W 032°48'1919.2 320 / 271000.9 10.2
2015-Aug-27 00:00N 57°42' W 032°12'2020.1 320 / 251000.5 10.2
2015-Aug-26 23:00N 57°48' W 031°36'2020.1 330 / 231000.0 10.4
2015-Aug-26 22:00N 57°54' W 031°00'2323.1 330 / 22999.4 10.7
2015-Aug-26 21:00N 58°00' W 030°18'2020.0 350 / 17999.2 10.4
2015-Aug-26 20:00N 58°06' W 029°42'1919.0 350 / 17998.3 10.7
2015-Aug-26 19:00N 58°06' W 029°06'2323.0 010 / 16997.5 10.4
2015-Aug-26 18:00N 58°12' W 028°24'2019.9 010 / 16996.9 10.9
2015-Aug-26 17:00N 58°18' W 027°48'4120.7 010 / 12996.6 11.2
2015-Aug-26 15:00N 58°24' W 026°30'2322.8 050 / 11995.9 11.4
2015-Aug-26 14:00N 58°30' W 025°48'1918.8 040 / 10995.7 11.7
2015-Aug-26 13:00N 58°30' W 025°12'4120.6 060 / 7995.5 12.2
2015-Aug-26 11:00N 58°36' W 023°54'2322.7 110 / 12995.1 11.9
2015-Aug-26 10:00N 58°42' W 023°12'4120.5 110 / 10995.0 12.7
2015-Aug-26 08:00N 58°48' W 021°54'1918.6 100 / 10995.1 12.0
2015-Aug-26 07:00N 58°48' W 021°18'2221.8 100 / 15995.0 12.0
2015-Aug-26 06:00N 58°48' W 020°36'2322.5 100 / 12995.0 12.0
2015-Aug-26 05:00N 58°54' W 019°54'1918.6 110 / 10994.9 12.2
2015-Aug-26 04:00N 58°54' W 019°18'2221.7 100 / 9995.3 12.4
2015-Aug-26 03:00N 58°54' W 018°36'4120.3 100 / 9995.5 12.5
2015-Aug-26 01:00N 59°00' W 017°18'2221.6 120 / 10996.3 12.5
2015-Aug-26 00:00N 59°00' W 016°36'2221.6 110 / 11996.8 12.9
2015-Aug-25 23:00N 59°00' W 015°54'1918.5 110 / 13997.4 12.9
2015-Aug-25 22:00N 59°00' W 015°18'2221.6 110 / 10997.6 12.9
2015-Aug-25 21:00N 59°00' W 014°36'2221.6 110 / 9998.0 13.2
2015-Aug-25 20:00N 59°00' W 013°54'2221.6 110 / 7998.4 13.2
2015-Aug-25 19:00N 59°00' W 013°12'1918.5 110 / 7998.5 13.2
2015-Aug-25 18:00N 59°00' W 012°36'2221.6 140 / 7998.7 13.4
2015-Aug-25 17:00N 59°00' W 011°54'1918.5 130 / 9999.3 13.4
2015-Aug-25 16:00N 59°00' W 011°18'2019.5 180 / 5999.6 13.4
2015-Aug-25 15:00N 58°54' W 010°42'1918.6 220 / 6999.7 2.2 2.0 13.7
2015-Aug-25 14:00N 58°54' W 010°06'2221.7 170 / 9999.9 13.7
2015-Aug-25 13:00N 58°54' W 009°24'3718.6 210 / 101000.1 13.9
2015-Aug-25 11:00N 58°54' W 008°12'1918.6 220 / 71000.6 13.9
2015-Aug-25 10:00N 58°54' W 007°36'2019.6 190 / 61001.3 13.9
2015-Aug-25 09:00N 58°48' W 007°00'1918.6 180 / 81001.5 14.0
2015-Aug-25 08:00N 58°48' W 006°24'1918.6 210 / 111001.4 14.0
2015-Aug-25 07:00N 58°48' W 005°48'1918.6 230 / 71001.5 13.9
2015-Aug-25 06:00N 58°48' W 005°12'2019.6 250 / 41001.4 13.9
2015-Aug-25 05:00N 58°42' W 004°36'1716.7 290 / 101001.1 13.5
2015-Aug-25 04:00N 58°48' W 004°06'2019.6 290 / 171000.0 13.5
2015-Aug-25 03:00N 58°42' W 003°30'1615.6 090 / 51001.5 13.4
2015-Aug-25 02:00N 58°42' W 003°00'2019.7 060 / 101001.6 13.2
2015-Aug-25 01:00N 58°30' W 002°30'2423.9 050 / 111001.4 13.2
2015-Aug-25 00:00N 58°12' W 002°00'1717.5 070 / 111001.5 13.2
2015-Aug-24 23:00N 58°00' W 001°36'1817.5 060 / 131001.4 14.2
2015-Aug-24 22:00N 57°48' W 001°12'2222.1 070 / 151001.1 14.2
2015-Aug-24 21:00N 57°30' W 000°48'1817.6 060 / 151001.1 13.9
2015-Aug-24 20:00N 57°18' W 000°24'1817.7 060 / 131001.1 14.0
2015-Aug-24 19:00N 57°06' E 000°00'2120.5 070 / 151000.7 14.9
2015-Aug-24 18:00N 56°48' E 000°18'1817.8 080 / 141000.7 15.4
2015-Aug-24 17:00N 56°36' E 000°42'1817.9 090 / 171000.9 15.9
2015-Aug-24 16:00N 56°24' E 001°06'2120.8 090 / 171001.3 16.0
2015-Aug-24 15:00N 56°18' E 001°42'3819.0 090 / 171001.7 16.2
2015-Aug-24 13:00N 56°00' E 002°42'3819.1 100 / 191002.1 16.9
2015-Aug-24 11:00N 55°42' E 003°42'1818.1 110 / 191002.7 17.2
2015-Aug-24 10:00N 55°30' E 004°06'2120.8 110 / 211003.2 17.5
2015-Aug-24 09:00N 55°18' E 004°36'1818.2 110 / 201003.8 17.7
2015-Aug-24 08:00N 55°06' E 005°00'2121.0 110 / 181004.0 17.7
2015-Aug-24 07:00N 54°54' E 005°30'1818.3 100 / 221004.3 17.9
2015-Aug-24 06:00N 54°48' E 006°00'2121.1 110 / 211004.6 17.9
2015-Aug-24 05:00N 54°36' E 006°30'5719.1 100 / 221005.0 18.2
2015-Aug-24 02:00N 54°06' E 007°54'1515.3 100 / 201006.2 18.9
2015-Aug-24 01:00N 54°00' E 008°18'1515.3 090 / 191007.1 19.9
2015-Aug-24 00:00N 53°54' E 008°42'4013.3 090 / 221007.6 20.9
2015-Aug-23 21:00N 53°36' E 009°42'9 0.3 080 / 131009.5 22.2
2015-Aug-22 16:00N 53°30' E 009°54'1212.3 120 / 131019.8 22.5
2015-Aug-22 15:00N 53°36' E 009°36'1413.9 130 / 131020.2 22.4
2015-Aug-22 14:00N 53°48' E 009°24'1212.2 120 / 101021.0 21.9
2015-Aug-22 13:00N 53°54' E 009°06'1110.6 090 / 141021.4 21.9
2015-Aug-22 12:00N 53°54' E 008°48'1515.3 090 / 121021.7 20.9
2015-Aug-22 11:00N 54°00' E 008°24'1414.1 090 / 101021.8 20.0
2015-Aug-22 10:00N 54°00' E 008°00'9 9.3 120 / 111022.4 18.4
2015-Aug-22 09:00N 53°54' E 007°48'2914.5 130 / 161022.3 18.7
2015-Aug-22 07:00N 53°48' E 007°00'1817.7 110 / 131021.2 19.4
2015-Aug-22 06:00N 53°48' E 006°30'1918.7 120 / 141020.6 19.4
2015-Aug-22 05:00N 53°42' E 006°00'1515.4 130 / 121020.6 19.4
2015-Aug-22 04:00N 53°36' E 005°36'3818.8 120 / 151020.1 19.4
2015-Aug-22 02:00N 53°24' E 004°36'1919.4 120 / 141020.1 18.9
2015-Aug-22 01:00N 53°06' E 004°24'1919.4 120 / 161019.8 18.9
2015-Aug-22 00:00N 52°48' E 004°12'1918.9 120 / 171019.7 18.9
2015-Aug-21 23:00N 52°36' E 003°48'2121.1 110 / 161020.0 18.9
2015-Aug-21 22:00N 52°18' E 003°30'1818.4 110 / 151020.0 18.9
2015-Aug-21 21:00N 52°00' E 003°24'1919.5 100 / 141020.1 19.4
2015-Aug-21 20:00N 51°42' E 003°12'1312.6 120 / 131020.3 19.7
2015-Aug-21 19:00N 51°30' E 003°06'1312.7 120 / 111019.8 20.0
2015-Aug-21 18:00N 51°24' E 003°24'2211.2 180 / 61020.1 20.2
2015-Aug-21 16:00N 51°24' E 004°00'7 7.5 140 / 41020.6 20.7
2015-Aug-21 15:00N 51°24' E 004°12'   130 / 41021.4 21.7
Track history (hours):
 
Tides and Currents Weather Stations Pressure Air Temp Water Temp Dewpoint Dewpoint Depression Visibility Wind Speed Wind Dir Waves Ship Positions

Callsign BATEU06 (name unknown)

Last reported at 2015-Aug-30 21:00 UTC. Time now 2015-Aug-30 22:35 UTC.
Position N 46°48' W 071°12'.

Wind from 250 at 18 knots

Barometer 1011.8 mb
Water temperature 23.4 ° C

Date/timePositionNaut miles runAvg speedWind from/ knotsBaromVisibWave heightAir tempDewpointWater temp
2015-Aug-30 21:00N 46°48' W 071°12'2020.3 250 / 181011.8 23.4
2015-Aug-30 20:00N 47°00' W 070°48'1514.5 210 / 211010.9 23.7
2015-Aug-30 19:00N 47°12' W 070°36'2424.3 200 / 231010.2 20.2
2015-Aug-30 18:00N 47°30' W 070°12'1414.5 220 / 151011.5 13.2
2015-Aug-30 17:00N 47°42' W 070°00'2221.7 220 / 191012.0 10.0
2015-Aug-30 16:00N 48°00' W 069°42'1414.4 210 / 231011.2 9.9
2015-Aug-30 15:00N 48°12' W 069°30'1010.0 210 / 151013.4 6.7
2015-Aug-30 14:00N 48°18' W 069°18'1414.4 220 / 181012.3 9.7
2015-Aug-30 13:00N 48°30' W 069°06'1010.0 220 / 221011.2 8.7
2015-Aug-30 12:00N 48°36' W 068°54'1313.3 230 / 261009.9 10.2
2015-Aug-30 11:00N 48°42' W 068°36'10 9.9 230 / 221010.0 10.2
2015-Aug-30 10:00N 48°48' W 068°24'10613.2 230 / 141010.3 10.4
2015-Aug-30 02:00N 49°36' W 066°00'2613.1 250 / 131012.1 14.4
2015-Aug-30 00:00N 49°48' W 065°24'6813.6 260 / 81012.6 14.7
2015-Aug-29 19:00N 50°06' W 063°42'1716.5 280 / 81012.8 14.7
2015-Aug-29 18:00N 50°00' W 063°18'1211.6 280 / 121012.6 17.4
2015-Aug-29 17:00N 50°00' W 063°00'1515.4 280 / 141012.8 17.5
2015-Aug-29 16:00N 50°00' W 062°36'1716.6 280 / 171012.8 18.0
2015-Aug-29 15:00N 49°54' W 062°12'1515.5 270 / 171012.3 17.9
2015-Aug-29 14:00N 49°54' W 061°48'1313.0 280 / 151012.1 17.9
2015-Aug-29 13:00N 50°00' W 061°30'3115.4 290 / 201012.0 18.2
2015-Aug-29 11:00N 50°00' W 060°42'5016.8 300 / 201009.9 17.7
2015-Aug-29 08:00N 50°06' W 059°24'1919.5 250 / 191007.0 16.4
2015-Aug-29 07:00N 50°18' W 059°00'3919.4 250 / 181007.2 17.4
2015-Aug-29 05:00N 50°42' W 058°12'1716.5 250 / 141006.9 17.4
2015-Aug-29 04:00N 50°54' W 057°54'1919.3 260 / 121007.2 16.7
2015-Aug-29 03:00N 51°06' W 057°30'1919.2 270 / 101007.2 16.7
2015-Aug-29 02:00N 51°18' W 057°06'1919.2 260 / 171006.7 17.4
2015-Aug-29 01:00N 51°30' W 056°42'2222.2 250 / 171005.0 17.7
2015-Aug-29 00:00N 51°42' W 056°12'3517.7 250 / 131004.3 16.0
2015-Aug-28 22:00N 51°54' W 055°18'1919.4 240 / 71004.8 8.9
2015-Aug-28 21:00N 52°00' W 054°48'1919.0 180 / 61005.1 10.7
2015-Aug-28 20:00N 52°12' W 054°24'1919.0 100 / 121006.1 10.2
2015-Aug-28 19:00N 52°24' W 054°00'1615.8 120 / 121006.9 10.5
2015-Aug-28 18:00N 52°30' W 053°36'2221.8 120 / 121007.6 10.7
2015-Aug-28 17:00N 52°42' W 053°06'1918.8 130 / 141008.0 10.4
2015-Aug-28 16:00N 52°54' W 052°42'2524.8 130 / 131009.3 8.4
2015-Aug-28 15:00N 53°06' W 052°06'1615.6 130 / 111010.6 8.4
2015-Aug-28 14:00N 53°12' W 051°42'1918.7 160 / 121011.0 9.9
2015-Aug-28 13:00N 53°24' W 051°18'1918.8 180 / 141011.4 10.9
2015-Aug-28 12:00N 53°30' W 050°48'1918.6 180 / 151011.8 10.2
2015-Aug-28 11:00N 53°42' W 050°24'2121.4 150 / 111012.1 11.5
2015-Aug-28 10:00N 53°54' W 049°54'1918.6 140 / 111012.5 11.4
2015-Aug-28 09:00N 54°00' W 049°24'1818.5 140 / 101013.2 11.4
2015-Aug-28 08:00N 54°12' W 049°00'1918.5 190 / 141013.5 11.2
2015-Aug-28 07:00N 54°18' W 048°30'1818.5 190 / 141013.7 11.2
2015-Aug-28 06:00N 54°24' W 048°00'1818.4 170 / 111014.2 11.0
2015-Aug-28 05:00N 54°36' W 047°36'1515.1 170 / 111014.8 11.2
2015-Aug-28 04:00N 54°42' W 047°12'1818.3 170 / 121015.1 10.7
2015-Aug-28 03:00N 54°48' W 046°42'2121.0 150 / 101015.8 10.4
2015-Aug-28 02:00N 55°00' W 046°12'1818.2 140 / 91016.5 10.5
2015-Aug-28 01:00N 55°06' W 045°42'1818.2 220 / 51016.8 10.4
2015-Aug-28 00:00N 55°12' W 045°12'1818.2 220 / 41016.9 10.7
2015-Aug-27 23:00N 55°24' W 044°48'1818.0 250 / 41016.3 10.7
2015-Aug-27 22:00N 55°30' W 044°18'2121.2 300 / 71016.6 9.9
2015-Aug-27 21:00N 55°36' W 043°42'1818.0 320 / 81016.1 10.0
2015-Aug-27 20:00N 55°42' W 043°12'2120.7 310 / 101015.6 9.4
2015-Aug-27 19:00N 55°54' W 042°42'1817.8 320 / 121015.0 9.9
2015-Aug-27 18:00N 56°00' W 042°12'1817.8 310 / 151014.6 9.9
2015-Aug-27 17:00N 56°06' W 041°42'2120.9 310 / 161013.9 9.7
2015-Aug-27 16:00N 56°12' W 041°06'2120.5 310 / 181013.4 9.4
2015-Aug-27 15:00N 56°24' W 040°36'1817.6 310 / 201012.7 9.2
2015-Aug-27 14:00N 56°30' W 040°06'2120.7 300 / 231012.0 9.4
2015-Aug-27 13:00N 56°36' W 039°30'3517.5 300 / 241011.0 9.2
2015-Aug-27 11:00N 56°48' W 038°30'1717.5 310 / 271009.6 9.4
2015-Aug-27 10:00N 56°54' W 038°00'2120.5 310 / 281008.5 9.4
2015-Aug-27 09:00N 57°00' W 037°24'2020.5 310 / 311007.1 9.4
2015-Aug-27 08:00N 57°06' W 036°48'1717.3 310 / 311006.4 9.4
2015-Aug-27 07:00N 57°12' W 036°18'2020.4 320 / 281005.1 9.7
2015-Aug-27 06:00N 57°18' W 035°42'2020.3 320 / 311003.9 10.2
2015-Aug-27 05:00N 57°24' W 035°06'1919.4 320 / 301003.3 9.9
2015-Aug-27 04:00N 57°24' W 034°30'1717.2 310 / 291002.4 9.7
2015-Aug-27 03:00N 57°30' W 034°00'2020.2 320 / 271002.4 0.3 10.2
2015-Aug-27 02:00N 57°36' W 033°24'2020.2 320 / 271001.6 10.0
2015-Aug-27 01:00N 57°42' W 032°48'1919.2 320 / 271000.9 10.2
2015-Aug-27 00:00N 57°42' W 032°12'2020.1 320 / 251000.5 10.2
2015-Aug-26 23:00N 57°48' W 031°36'2020.1 330 / 231000.0 10.4
2015-Aug-26 22:00N 57°54' W 031°00'2323.1 330 / 22999.4 10.7
2015-Aug-26 21:00N 58°00' W 030°18'2020.0 350 / 17999.2 10.4
2015-Aug-26 20:00N 58°06' W 029°42'1919.0 350 / 17998.3 10.7
2015-Aug-26 19:00N 58°06' W 029°06'2323.0 010 / 16997.5 10.4
2015-Aug-26 18:00N 58°12' W 028°24'2019.9 010 / 16996.9 10.9
2015-Aug-26 17:00N 58°18' W 027°48'4120.7 010 / 12996.6 11.2
2015-Aug-26 15:00N 58°24' W 026°30'2322.8 050 / 11995.9 11.4
2015-Aug-26 14:00N 58°30' W 025°48'1918.8 040 / 10995.7 11.7
2015-Aug-26 13:00N 58°30' W 025°12'4120.6 060 / 7995.5 12.2
2015-Aug-26 11:00N 58°36' W 023°54'2322.7 110 / 12995.1 11.9
2015-Aug-26 10:00N 58°42' W 023°12'4120.5 110 / 10995.0 12.7
2015-Aug-26 08:00N 58°48' W 021°54'1918.6 100 / 10995.1 12.0
2015-Aug-26 07:00N 58°48' W 021°18'2221.8 100 / 15995.0 12.0
2015-Aug-26 06:00N 58°48' W 020°36'2322.5 100 / 12995.0 12.0
2015-Aug-26 05:00N 58°54' W 019°54'1918.6 110 / 10994.9 12.2
2015-Aug-26 04:00N 58°54' W 019°18'2221.7 100 / 9995.3 12.4
2015-Aug-26 03:00N 58°54' W 018°36'4120.3 100 / 9995.5 12.5
2015-Aug-26 01:00N 59°00' W 017°18'2221.6 120 / 10996.3 12.5
2015-Aug-26 00:00N 59°00' W 016°36'2221.6 110 / 11996.8 12.9
2015-Aug-25 23:00N 59°00' W 015°54'1918.5 110 / 13997.4 12.9
2015-Aug-25 22:00N 59°00' W 015°18'2221.6 110 / 10997.6 12.9
2015-Aug-25 21:00N 59°00' W 014°36'2221.6 110 / 9998.0 13.2
2015-Aug-25 20:00N 59°00' W 013°54'2221.6 110 / 7998.4 13.2
2015-Aug-25 19:00N 59°00' W 013°12'1918.5 110 / 7998.5 13.2
2015-Aug-25 18:00N 59°00' W 012°36'2221.6 140 / 7998.7 13.4
2015-Aug-25 17:00N 59°00' W 011°54'1918.5 130 / 9999.3 13.4
2015-Aug-25 16:00N 59°00' W 011°18'2019.5 180 / 5999.6 13.4
2015-Aug-25 15:00N 58°54' W 010°42'1918.6 220 / 6999.7 2.2 2.0 13.7
2015-Aug-25 14:00N 58°54' W 010°06'2221.7 170 / 9999.9 13.7
2015-Aug-25 13:00N 58°54' W 009°24'3718.6 210 / 101000.1 13.9
2015-Aug-25 11:00N 58°54' W 008°12'1918.6 220 / 71000.6 13.9
2015-Aug-25 10:00N 58°54' W 007°36'2019.6 190 / 61001.3 13.9
2015-Aug-25 09:00N 58°48' W 007°00'1918.6 180 / 81001.5 14.0
2015-Aug-25 08:00N 58°48' W 006°24'1918.6 210 / 111001.4 14.0
2015-Aug-25 07:00N 58°48' W 005°48'1918.6 230 / 71001.5 13.9
2015-Aug-25 06:00N 58°48' W 005°12'2019.6 250 / 41001.4 13.9
2015-Aug-25 05:00N 58°42' W 004°36'1716.7 290 / 101001.1 13.5
2015-Aug-25 04:00N 58°48' W 004°06'2019.6 290 / 171000.0 13.5
2015-Aug-25 03:00N 58°42' W 003°30'1615.6 090 / 51001.5 13.4
2015-Aug-25 02:00N 58°42' W 003°00'2019.7 060 / 101001.6 13.2
2015-Aug-25 01:00N 58°30' W 002°30'2423.9 050 / 111001.4 13.2
2015-Aug-25 00:00N 58°12' W 002°00'1717.5 070 / 111001.5 13.2
2015-Aug-24 23:00N 58°00' W 001°36'1817.5 060 / 131001.4 14.2
2015-Aug-24 22:00N 57°48' W 001°12'2222.1 070 / 151001.1 14.2
2015-Aug-24 21:00N 57°30' W 000°48'1817.6 060 / 151001.1 13.9
2015-Aug-24 20:00N 57°18' W 000°24'1817.7 060 / 131001.1 14.0
2015-Aug-24 19:00N 57°06' E 000°00'2120.5 070 / 151000.7 14.9
2015-Aug-24 18:00N 56°48' E 000°18'1817.8 080 / 141000.7 15.4
2015-Aug-24 17:00N 56°36' E 000°42'1817.9 090 / 171000.9 15.9
2015-Aug-24 16:00N 56°24' E 001°06'2120.8 090 / 171001.3 16.0
2015-Aug-24 15:00N 56°18' E 001°42'3819.0 090 / 171001.7 16.2
2015-Aug-24 13:00N 56°00' E 002°42'3819.1 100 / 191002.1 16.9
2015-Aug-24 11:00N 55°42' E 003°42'1818.1 110 / 191002.7 17.2
2015-Aug-24 10:00N 55°30' E 004°06'2120.8 110 / 211003.2 17.5
2015-Aug-24 09:00N 55°18' E 004°36'1818.2 110 / 201003.8 17.7
2015-Aug-24 08:00N 55°06' E 005°00'2121.0 110 / 181004.0 17.7
2015-Aug-24 07:00N 54°54' E 005°30'1818.3 100 / 221004.3 17.9
2015-Aug-24 06:00N 54°48' E 006°00'2121.1 110 / 211004.6 17.9
2015-Aug-24 05:00N 54°36' E 006°30'5719.1 100 / 221005.0 18.2
2015-Aug-24 02:00N 54°06' E 007°54'1515.3 100 / 201006.2 18.9
2015-Aug-24 01:00N 54°00' E 008°18'1515.3 090 / 191007.1 19.9
2015-Aug-24 00:00N 53°54' E 008°42'4013.3 090 / 221007.6 20.9
2015-Aug-23 21:00N 53°36' E 009°42'9 0.3 080 / 131009.5 22.2
2015-Aug-22 16:00N 53°30' E 009°54'1212.3 120 / 131019.8 22.5
2015-Aug-22 15:00N 53°36' E 009°36'1413.9 130 / 131020.2 22.4
2015-Aug-22 14:00N 53°48' E 009°24'1212.2 120 / 101021.0 21.9
2015-Aug-22 13:00N 53°54' E 009°06'1110.6 090 / 141021.4 21.9
2015-Aug-22 12:00N 53°54' E 008°48'1515.3 090 / 121021.7 20.9
2015-Aug-22 11:00N 54°00' E 008°24'1414.1 090 / 101021.8 20.0
2015-Aug-22 10:00N 54°00' E 008°00'9 9.3 120 / 111022.4 18.4
2015-Aug-22 09:00N 53°54' E 007°48'2914.5 130 / 161022.3 18.7
2015-Aug-22 07:00N 53°48' E 007°00'1817.7 110 / 131021.2 19.4
2015-Aug-22 06:00N 53°48' E 006°30'1918.7 120 / 141020.6 19.4
2015-Aug-22 05:00N 53°42' E 006°00'1515.4 130 / 121020.6 19.4
2015-Aug-22 04:00N 53°36' E 005°36'3818.8 120 / 151020.1 19.4
2015-Aug-22 02:00N 53°24' E 004°36'1919.4 120 / 141020.1 18.9
2015-Aug-22 01:00N 53°06' E 004°24'1919.4 120 / 161019.8 18.9
2015-Aug-22 00:00N 52°48' E 004°12'1918.9 120 / 171019.7 18.9
2015-Aug-21 23:00N 52°36' E 003°48'2121.1 110 / 161020.0 18.9
2015-Aug-21 22:00N 52°18' E 003°30'1818.4 110 / 151020.0 18.9
2015-Aug-21 21:00N 52°00' E 003°24'1919.5 100 / 141020.1 19.4
2015-Aug-21 20:00N 51°42' E 003°12'1312.6 120 / 131020.3 19.7
2015-Aug-21 19:00N 51°30' E 003°06'1312.7 120 / 111019.8 20.0
2015-Aug-21 18:00N 51°24' E 003°24'2211.2 180 / 61020.1 20.2
2015-Aug-21 16:00N 51°24' E 004°00'7 7.5 140 / 41020.6 20.7
2015-Aug-21 15:00N 51°24' E 004°12'   130 / 41021.4 21.7

Dump ship's entire track history